Eduardo Gomes International Airport


Codes: SBEG/MAO
Name: Eduardo Gomes International Airport
City: Manaus
Country: Brazil
Elevation: 264 ft.
Wikipedia:

Photos at Eduardo Gomes International Airport


   Photos courtesy of SpottingLog. You can add your own sightings and photos by signing up for a free trial today.



No photos found.

Weather at Eduardo Gomes International Airport


Time (UTC)DescriptionTempratureWindCloud coverageVisibilityPressureHumidity
17-Jun-2024 06:00Light Rain25°C2 mph, NE29%10000m1012hPa90%
17-Jun-2024 09:00Scattered Clouds24°C2 mph, E49%10000m1011hPa88%
17-Jun-2024 12:00Scattered Clouds26°C2 mph, E43%10000m1012hPa76%
17-Jun-2024 15:00Clear Sky32°C2 mph, E1%10000m1011hPa51%
17-Jun-2024 18:00Clear Sky33°C4 mph, SE1%10000m1008hPa47%
17-Jun-2024 21:00Few Clouds30°C0 mph, SE19%10000m1007hPa62%
18-Jun-2024 00:00Broken Clouds28°C2 mph, E51%10000m1009hPa65%
18-Jun-2024 03:00Clear Sky25°C2 mph, N3%10000m1010hPa75%
18-Jun-2024 06:00Clear Sky25°C2 mph, NE9%10000m1009hPa77%
18-Jun-2024 09:00Clear Sky24°C2 mph, NE0%10000m1009hPa83%
18-Jun-2024 12:00Clear Sky27°C2 mph, NE0%10000m1011hPa71%
18-Jun-2024 15:00Few Clouds32°C4 mph, E18%10000m1010hPa52%
18-Jun-2024 18:00Few Clouds34°C4 mph, E24%10000m1007hPa46%
18-Jun-2024 21:00Broken Clouds28°C7 mph, S59%10000m1006hPa71%
19-Jun-2024 00:00Light Rain24°C4 mph, NE36%10000m1009hPa91%
19-Jun-2024 03:00Light Rain23°C4 mph, NE21%10000m1010hPa94%
19-Jun-2024 06:00Light Rain23°C2 mph, NE42%10000m1008hPa92%
19-Jun-2024 09:00Light Rain23°C4 mph, NE100%10000m1009hPa94%
19-Jun-2024 12:00Broken Clouds25°C4 mph, NE63%10000m1011hPa85%
19-Jun-2024 15:00Clear Sky32°C4 mph, E0%10000m1011hPa54%
19-Jun-2024 18:00Clear Sky34°C4 mph, SE1%10000m1007hPa45%
19-Jun-2024 21:00Broken Clouds29°C2 mph, E64%10000m1006hPa65%
20-Jun-2024 00:00Broken Clouds27°C2 mph, NE67%10000m1008hPa72%
20-Jun-2024 03:00Broken Clouds25°C2 mph, NE71%10000m1009hPa78%
20-Jun-2024 06:00Overcast Clouds24°C2 mph, E87%10000m1008hPa79%
20-Jun-2024 09:00Light Rain24°C4 mph, NE100%10000m1009hPa85%
20-Jun-2024 12:00Overcast Clouds27°C4 mph, E97%10000m1011hPa74%
20-Jun-2024 15:00Scattered Clouds32°C7 mph, E43%10000m1010hPa50%
20-Jun-2024 18:00Scattered Clouds34°C7 mph, SE34%10000m1008hPa44%
20-Jun-2024 21:00Broken Clouds29°C2 mph, SE67%10000m1007hPa64%
21-Jun-2024 00:00Broken Clouds27°C2 mph, E66%10000m1008hPa73%
21-Jun-2024 03:00Overcast Clouds27°C4 mph, N96%10000m1010hPa76%
21-Jun-2024 06:00Broken Clouds24°C4 mph, NE56%10000m1009hPa87%
21-Jun-2024 09:00Few Clouds24°C4 mph, NE18%10000m1010hPa88%
21-Jun-2024 12:00Few Clouds27°C7 mph, NE19%10000m1012hPa74%
21-Jun-2024 15:00Scattered Clouds32°C4 mph, NE44%10000m1011hPa54%
21-Jun-2024 18:00Scattered Clouds31°C4 mph, SE45%10000m1008hPa59%
21-Jun-2024 21:00Light Rain28°C2 mph, N88%8383m1007hPa75%
22-Jun-2024 00:00Light Rain24°C4 mph, NE85%9922m1010hPa90%
22-Jun-2024 03:00Light Rain23°C4 mph, N86%10000m1011hPa95%